Bothell, WA (98011)

6:31 PM PST on February 10, 2016 (GMT -0800)
Riverbend - Blyth Park | | Change Station
CLOSE
Current Station
Personal Weather Station
Location: Bothell, WA
Elevation: 43 ft
Nearby Weather Stations

Elev 43 ft 47.75 °N, 122.21 °W | Updated 13 seconds ago

Clear
Clear
50.9 °F
Feels Like 50.9 °F
N
0.0
Wind Variable Wind from SW
Gusts 0.0 mph

Today
High -- | Low -- °F
--% Chance of Precip.
Yesterday
High -- | Low -- °F
Precip. -- in
Pressure 30.26 in
Visibility 10.0 miles
Clouds Clear
Dew Point 48 °F
Humidity 89%
Rainfall 0.05 in
Snow Depth Not available.
7:23 AM 5:23 PM
Waxing Crescent, 8% visible
METAR KPAE 110153Z 20013KT 10SM CLR 11/08 A3025 RMK AO2 SLP245 T01110083
Pressure 30.26 in
Visibility 10.0 miles
Clouds Clear
Dew Point 48 °F
Humidity 89%
Rainfall 0.05 in
Snow Depth Not available.
7:23 AM 5:23 PM
Waxing Crescent, 8% visible
METAR KPAE 110153Z 20013KT 10SM CLR 11/08 A3025 RMK AO2 SLP245 T01110083

10-Day Weather Forecast

Almanac

Astronomy

Feb. 10, 2016 Rise Set
Actual Time
Civil Twilight
Nautical Twilight
Astronomical Twilight
Moon
Length of Visible Light
Length of Day
Tomorrow will be .
, % of the Moon is Illuminated

Today's Extremes

State Highs State Lows

Community

WunderPhotos

Upload Photos

1,891,986 photos uploaded!

WunderBlog® & News

Nearby

Air Quality

  Air Quality AQ Index Pollutant
Not available.

Snow Depth

Station Depth Elevation

Earthquake Activity

City Distance Mag. Time & Date
Minimum magnitude displayed is 2.5.

Coastal Water Temperatures

Place Temperature

Stations

Nearby Weather Stations

Station Location Temp. Windchill Dew Point Humidity Wind Precip. Elev Updated Type
                   

Watches & Warnings

There are currently no watches in effect.